sensor_id;sensor_type;location;lat;lon;timestamp;temperature;humidity
69393;SHT31;56582;44.624;20.378;2023-11-21T00:01:57;9.64;74.20
69393;SHT31;56582;44.624;20.378;2023-11-21T00:04:23;9.59;74.38
69393;SHT31;56582;44.624;20.378;2023-11-21T00:06:49;9.70;74.26
69393;SHT31;56582;44.624;20.378;2023-11-21T00:09:15;9.60;74.40
69393;SHT31;56582;44.624;20.378;2023-11-21T00:11:44;9.59;74.59
69393;SHT31;56582;44.624;20.378;2023-11-21T00:14:11;9.54;74.64
69393;SHT31;56582;44.624;20.378;2023-11-21T00:16:36;9.46;74.93
69393;SHT31;56582;44.624;20.378;2023-11-21T00:19:02;9.44;75.10
69393;SHT31;56582;44.624;20.378;2023-11-21T00:21:27;9.54;74.78
69393;SHT31;56582;44.624;20.378;2023-11-21T00:23:53;9.54;74.75
69393;SHT31;56582;44.624;20.378;2023-11-21T00:26:18;9.53;74.89
69393;SHT31;56582;44.624;20.378;2023-11-21T00:28:44;9.61;74.63
69393;SHT31;56582;44.624;20.378;2023-11-21T00:31:09;9.74;74.17
69393;SHT31;56582;44.624;20.378;2023-11-21T00:33:35;9.76;73.94
69393;SHT31;56582;44.624;20.378;2023-11-21T00:36:00;9.76;73.89
69393;SHT31;56582;44.624;20.378;2023-11-21T00:38:26;9.74;74.05
69393;SHT31;56582;44.624;20.378;2023-11-21T00:40:52;9.59;74.56
69393;SHT31;56582;44.624;20.378;2023-11-21T00:43:24;9.54;74.99
69393;SHT31;56582;44.624;20.378;2023-11-21T00:45:49;9.56;75.03
69393;SHT31;56582;44.624;20.378;2023-11-21T00:48:15;9.36;75.29
69393;SHT31;56582;44.624;20.378;2023-11-21T00:50:40;9.33;75.66
69393;SHT31;56582;44.624;20.378;2023-11-21T00:53:06;9.18;76.25
69393;SHT31;56582;44.624;20.378;2023-11-21T00:55:33;9.15;76.44
69393;SHT31;56582;44.624;20.378;2023-11-21T00:57:58;9.10;76.68
69393;SHT31;56582;44.624;20.378;2023-11-21T01:00:25;9.08;76.83
69393;SHT31;56582;44.624;20.378;2023-11-21T01:02:50;8.94;77.37
69393;SHT31;56582;44.624;20.378;2023-11-21T01:05:16;9.11;77.09
69393;SHT31;56582;44.624;20.378;2023-11-21T01:07:41;9.25;76.44
69393;SHT31;56582;44.624;20.378;2023-11-21T01:10:07;9.36;76.10
69393;SHT31;56582;44.624;20.378;2023-11-21T01:12:37;9.40;75.90
69393;SHT31;56582;44.624;20.378;2023-11-21T01:15:04;9.38;76.06
69393;SHT31;56582;44.624;20.378;2023-11-21T01:17:32;9.31;76.27
69393;SHT31;56582;44.624;20.378;2023-11-21T01:19:59;9.32;76.24
69393;SHT31;56582;44.624;20.378;2023-11-21T01:22:25;9.33;76.16
69393;SHT31;56582;44.624;20.378;2023-11-21T01:24:52;9.43;75.78
69393;SHT31;56582;44.624;20.378;2023-11-21T01:27:18;9.50;75.41
69393;SHT31;56582;44.624;20.378;2023-11-21T01:29:43;9.52;75.51
69393;SHT31;56582;44.624;20.378;2023-11-21T01:32:09;9.42;75.95
69393;SHT31;56582;44.624;20.378;2023-11-21T01:34:35;9.36;76.52
69393;SHT31;56582;44.624;20.378;2023-11-21T01:37:00;9.33;76.73
69393;SHT31;56582;44.624;20.378;2023-11-21T01:39:28;9.19;76.98
69393;SHT31;56582;44.624;20.378;2023-11-21T01:41:53;9.07;77.38
69393;SHT31;56582;44.624;20.378;2023-11-21T01:44:19;9.14;77.43
69393;SHT31;56582;44.624;20.378;2023-11-21T01:46:45;9.11;77.64
69393;SHT31;56582;44.624;20.378;2023-11-21T01:49:12;9.15;77.92
69393;SHT31;56582;44.624;20.378;2023-11-21T01:51:40;9.31;77.36
69393;SHT31;56582;44.624;20.378;2023-11-21T01:54:06;9.33;77.15
69393;SHT31;56582;44.624;20.378;2023-11-21T01:56:32;9.40;76.86
69393;SHT31;56582;44.624;20.378;2023-11-21T01:58:58;9.39;76.51
69393;SHT31;56582;44.624;20.378;2023-11-21T02:01:23;9.43;76.35
69393;SHT31;56582;44.624;20.378;2023-11-21T02:03:49;9.50;76.14
69393;SHT31;56582;44.624;20.378;2023-11-21T02:06:14;9.42;76.29
69393;SHT31;56582;44.624;20.378;2023-11-21T02:08:40;9.35;76.80
69393;SHT31;56582;44.624;20.378;2023-11-21T02:11:07;9.32;76.91
69393;SHT31;56582;44.624;20.378;2023-11-21T02:13:34;9.42;76.59
69393;SHT31;56582;44.624;20.378;2023-11-21T02:16:01;9.40;76.51
69393;SHT31;56582;44.624;20.378;2023-11-21T02:18:27;9.54;76.06
69393;SHT31;56582;44.624;20.378;2023-11-21T02:20:55;9.59;75.74
69393;SHT31;56582;44.624;20.378;2023-11-21T02:23:20;9.73;75.41
69393;SHT31;56582;44.624;20.378;2023-11-21T02:25:46;9.79;75.18
69393;SHT31;56582;44.624;20.378;2023-11-21T02:28:12;9.80;75.31
69393;SHT31;56582;44.624;20.378;2023-11-21T02:30:40;9.71;75.47
69393;SHT31;56582;44.624;20.378;2023-11-21T02:33:06;9.66;75.74
69393;SHT31;56582;44.624;20.378;2023-11-21T02:35:32;9.66;75.96
69393;SHT31;56582;44.624;20.378;2023-11-21T02:37:57;9.79;75.57
69393;SHT31;56582;44.624;20.378;2023-11-21T02:40:23;9.87;75.34
69393;SHT31;56582;44.624;20.378;2023-11-21T02:42:51;9.84;75.68
69393;SHT31;56582;44.624;20.378;2023-11-21T02:45:18;9.90;75.31
69393;SHT31;56582;44.624;20.378;2023-11-21T02:47:44;10.04;75.11
69393;SHT31;56582;44.624;20.378;2023-11-21T02:50:10;10.04;75.00
69393;SHT31;56582;44.624;20.378;2023-11-21T02:52:36;10.07;74.96
69393;SHT31;56582;44.624;20.378;2023-11-21T02:55:04;10.07;75.09
69393;SHT31;56582;44.624;20.378;2023-11-21T02:57:30;10.04;75.08
69393;SHT31;56582;44.624;20.378;2023-11-21T02:59:56;10.07;75.04
69393;SHT31;56582;44.624;20.378;2023-11-21T03:02:21;10.04;75.40
69393;SHT31;56582;44.624;20.378;2023-11-21T03:04:47;10.10;75.14
69393;SHT31;56582;44.624;20.378;2023-11-21T03:07:16;10.18;74.79
69393;SHT31;56582;44.624;20.378;2023-11-21T03:09:42;10.17;74.86
69393;SHT31;56582;44.624;20.378;2023-11-21T03:12:08;10.08;75.25
69393;SHT31;56582;44.624;20.378;2023-11-21T03:14:34;10.04;75.43
69393;SHT31;56582;44.624;20.378;2023-11-21T03:16:59;10.02;75.67
69393;SHT31;56582;44.624;20.378;2023-11-21T03:19:25;10.14;75.21
69393;SHT31;56582;44.624;20.378;2023-11-21T03:21:50;10.11;75.24
69393;SHT31;56582;44.624;20.378;2023-11-21T03:24:18;10.12;75.19
69393;SHT31;56582;44.624;20.378;2023-11-21T03:26:45;10.22;75.11
69393;SHT31;56582;44.624;20.378;2023-11-21T03:29:12;10.25;74.94
69393;SHT31;56582;44.624;20.378;2023-11-21T03:31:38;10.25;74.92
69393;SHT31;56582;44.624;20.378;2023-11-21T03:34:03;10.21;75.08
69393;SHT31;56582;44.624;20.378;2023-11-21T03:36:29;10.17;75.13
69393;SHT31;56582;44.624;20.378;2023-11-21T03:38:54;10.18;75.14
69393;SHT31;56582;44.624;20.378;2023-11-21T03:41:20;10.17;75.15
69393;SHT31;56582;44.624;20.378;2023-11-21T03:43:46;10.10;75.53
69393;SHT31;56582;44.624;20.378;2023-11-21T03:46:11;10.11;75.40
69393;SHT31;56582;44.624;20.378;2023-11-21T03:48:38;10.14;75.51
69393;SHT31;56582;44.624;20.378;2023-11-21T03:51:03;10.04;75.62
69393;SHT31;56582;44.624;20.378;2023-11-21T03:53:29;10.05;75.63
69393;SHT31;56582;44.624;20.378;2023-11-21T03:55:54;10.05;75.75
69393;SHT31;56582;44.624;20.378;2023-11-21T03:58:20;10.14;75.51
69393;SHT31;56582;44.624;20.378;2023-11-21T04:00:47;10.17;75.52
69393;SHT31;56582;44.624;20.378;2023-11-21T04:03:14;10.25;75.20
69393;SHT31;56582;44.624;20.378;2023-11-21T04:05:40;10.19;75.38
69393;SHT31;56582;44.624;20.378;2023-11-21T04:08:06;10.17;75.58
69393;SHT31;56582;44.624;20.378;2023-11-21T04:10:32;10.07;75.77
69393;SHT31;56582;44.624;20.378;2023-11-21T04:12:58;10.11;75.92
69393;SHT31;56582;44.624;20.378;2023-11-21T04:15:23;10.04;76.12
69393;SHT31;56582;44.624;20.378;2023-11-21T04:17:49;10.02;76.21
69393;SHT31;56582;44.624;20.378;2023-11-21T04:20:14;10.00;76.51
69393;SHT31;56582;44.624;20.378;2023-11-21T04:22:41;10.01;76.51
69393;SHT31;56582;44.624;20.378;2023-11-21T04:25:13;9.98;76.62
69393;SHT31;56582;44.624;20.378;2023-11-21T04:27:40;10.02;76.34
69393;SHT31;56582;44.624;20.378;2023-11-21T04:30:06;9.98;79.15
69393;SHT31;56582;44.624;20.378;2023-11-21T04:32:33;9.90;77.35
69393;SHT31;56582;44.624;20.378;2023-11-21T04:34:58;9.80;77.42
69393;SHT31;56582;44.624;20.378;2023-11-21T04:37:25;9.59;78.22
69393;SHT31;56582;44.624;20.378;2023-11-21T04:39:50;9.50;78.54
69393;SHT31;56582;44.624;20.378;2023-11-21T04:42:17;9.56;78.58
69393;SHT31;56582;44.624;20.378;2023-11-21T04:44:42;9.66;78.38
69393;SHT31;56582;44.624;20.378;2023-11-21T04:47:09;9.60;78.48
69393;SHT31;56582;44.624;20.378;2023-11-21T04:49:34;9.64;78.53
69393;SHT31;56582;44.624;20.378;2023-11-21T04:52:00;9.64;78.41
69393;SHT31;56582;44.624;20.378;2023-11-21T04:54:26;9.56;78.80
69393;SHT31;56582;44.624;20.378;2023-11-21T04:56:52;9.54;78.92
69393;SHT31;56582;44.624;20.378;2023-11-21T04:59:17;9.63;78.71
69393;SHT31;56582;44.624;20.378;2023-11-21T05:01:43;9.71;78.55
69393;SHT31;56582;44.624;20.378;2023-11-21T05:04:09;9.83;78.02
69393;SHT31;56582;44.624;20.378;2023-11-21T05:06:35;10.02;80.62
69393;SHT31;56582;44.624;20.378;2023-11-21T05:09:00;10.00;78.02
69393;SHT31;56582;44.624;20.378;2023-11-21T05:11:26;10.07;77.42
69393;SHT31;56582;44.624;20.378;2023-11-21T05:13:55;10.10;77.30
69393;SHT31;56582;44.624;20.378;2023-11-21T05:16:22;10.08;77.61
69393;SHT31;56582;44.624;20.378;2023-11-21T05:18:48;10.05;77.99
69393;SHT31;56582;44.624;20.378;2023-11-21T05:21:15;9.98;78.10
69393;SHT31;56582;44.624;20.378;2023-11-21T05:23:41;9.91;78.71
69393;SHT31;56582;44.624;20.378;2023-11-21T05:26:06;10.00;78.71
69393;SHT31;56582;44.624;20.378;2023-11-21T05:28:32;10.00;78.71
69393;SHT31;56582;44.624;20.378;2023-11-21T05:30:58;9.97;78.99
69393;SHT31;56582;44.624;20.378;2023-11-21T05:33:23;9.88;79.05
69393;SHT31;56582;44.624;20.378;2023-11-21T05:35:48;9.93;78.89
69393;SHT31;56582;44.624;20.378;2023-11-21T05:38:14;10.00;78.89
69393;SHT31;56582;44.624;20.378;2023-11-21T05:40:39;9.93;80.03
69393;SHT31;56582;44.624;20.378;2023-11-21T05:43:06;10.00;81.79
69393;SHT31;56582;44.624;20.378;2023-11-21T05:45:32;10.15;84.05
69393;SHT31;56582;44.624;20.378;2023-11-21T05:47:58;10.14;82.13
69393;SHT31;56582;44.624;20.378;2023-11-21T05:50:23;10.29;82.57
69393;SHT31;56582;44.624;20.378;2023-11-21T05:52:49;10.34;82.88
69393;SHT31;56582;44.624;20.378;2023-11-21T05:55:15;10.37;81.71
69393;SHT31;56582;44.624;20.378;2023-11-21T05:57:42;10.55;87.34
69393;SHT31;56582;44.624;20.378;2023-11-21T06:00:12;10.62;84.20
69393;SHT31;56582;44.624;20.378;2023-11-21T06:02:57;10.80;85.27
69393;SHT31;56582;44.624;20.378;2023-11-21T06:05:24;10.80;84.81
69393;SHT31;56582;44.624;20.378;2023-11-21T06:07:50;10.95;82.75
69393;SHT31;56582;44.624;20.378;2023-11-21T06:10:17;10.73;80.43
69393;SHT31;56582;44.624;20.378;2023-11-21T06:12:44;10.79;81.22
69393;SHT31;56582;44.624;20.378;2023-11-21T06:15:10;10.90;83.12
69393;SHT31;56582;44.624;20.378;2023-11-21T06:17:40;10.84;81.12
69393;SHT31;56582;44.624;20.378;2023-11-21T06:20:07;10.90;81.64
69393;SHT31;56582;44.624;20.378;2023-11-21T06:22:40;10.87;81.21
69393;SHT31;56582;44.624;20.378;2023-11-21T06:25:06;10.81;79.32
69393;SHT31;56582;44.624;20.378;2023-11-21T06:27:33;10.73;79.19
69393;SHT31;56582;44.624;20.378;2023-11-21T06:29:59;10.89;80.48
69393;SHT31;56582;44.624;20.378;2023-11-21T06:32:25;10.90;80.17
69393;SHT31;56582;44.624;20.378;2023-11-21T06:34:51;11.04;81.39
69393;SHT31;56582;44.624;20.378;2023-11-21T06:37:20;11.11;82.60
69393;SHT31;56582;44.624;20.378;2023-11-21T06:39:48;11.32;81.25
69393;SHT31;56582;44.624;20.378;2023-11-21T06:42:14;11.55;80.80
69393;SHT31;56582;44.624;20.378;2023-11-21T06:44:40;11.50;75.88
69393;SHT31;56582;44.624;20.378;2023-11-21T06:47:07;11.62;78.41
69393;SHT31;56582;44.624;20.378;2023-11-21T06:49:32;11.64;79.76
69393;SHT31;56582;44.624;20.378;2023-11-21T06:51:58;11.52;78.68
69393;SHT31;56582;44.624;20.378;2023-11-21T06:54:24;11.44;78.93
69393;SHT31;56582;44.624;20.378;2023-11-21T06:56:49;11.55;80.34
69393;SHT31;56582;44.624;20.378;2023-11-21T06:59:15;11.55;78.45
69393;SHT31;56582;44.624;20.378;2023-11-21T07:01:41;11.66;80.93
69393;SHT31;56582;44.624;20.378;2023-11-21T07:04:07;11.62;80.04
69393;SHT31;56582;44.624;20.378;2023-11-21T07:06:34;11.52;78.21
69393;SHT31;56582;44.624;20.378;2023-11-21T07:09:00;11.25;77.63
69393;SHT31;56582;44.624;20.378;2023-11-21T07:11:27;11.38;78.71
69393;SHT31;56582;44.624;20.378;2023-11-21T07:13:52;11.52;80.25
69393;SHT31;56582;44.624;20.378;2023-11-21T07:16:18;11.46;79.01
69393;SHT31;56582;44.624;20.378;2023-11-21T07:18:44;11.59;79.02
69393;SHT31;56582;44.624;20.378;2023-11-21T07:21:10;11.61;79.41
69393;SHT31;56582;44.624;20.378;2023-11-21T07:23:37;11.85;79.94
69393;SHT31;56582;44.624;20.378;2023-11-21T07:26:03;11.97;78.43
69393;SHT31;56582;44.624;20.378;2023-11-21T07:28:29;11.92;77.99
69393;SHT31;56582;44.624;20.378;2023-11-21T07:30:55;11.99;78.11
69393;SHT31;56582;44.624;20.378;2023-11-21T07:33:20;11.78;76.54
69393;SHT31;56582;44.624;20.378;2023-11-21T07:35:46;11.81;75.87
69393;SHT31;56582;44.624;20.378;2023-11-21T07:38:12;11.72;75.76
69393;SHT31;56582;44.624;20.378;2023-11-21T07:40:38;11.61;76.94
69393;SHT31;56582;44.624;20.378;2023-11-21T07:43:04;11.66;78.06
69393;SHT31;56582;44.624;20.378;2023-11-21T07:45:30;11.82;79.17
69393;SHT31;56582;44.624;20.378;2023-11-21T07:47:56;11.85;77.63
69393;SHT31;56582;44.624;20.378;2023-11-21T07:50:22;11.81;77.31
69393;SHT31;56582;44.624;20.378;2023-11-21T07:52:48;11.74;77.54
69393;SHT31;56582;44.624;20.378;2023-11-21T07:55:15;11.58;77.40
69393;SHT31;56582;44.624;20.378;2023-11-21T07:57:40;11.50;77.81
69393;SHT31;56582;44.624;20.378;2023-11-21T08:00:06;11.58;78.80
69393;SHT31;56582;44.624;20.378;2023-11-21T08:02:34;11.54;77.78
69393;SHT31;56582;44.624;20.378;2023-11-21T08:05:00;11.51;77.85
69393;SHT31;56582;44.624;20.378;2023-11-21T08:07:25;11.50;78.19
69393;SHT31;56582;44.624;20.378;2023-11-21T08:09:51;11.59;79.40
69393;SHT31;56582;44.624;20.378;2023-11-21T08:12:18;11.45;78.23
69393;SHT31;56582;44.624;20.378;2023-11-21T08:14:45;11.52;79.29
69393;SHT31;56582;44.624;20.378;2023-11-21T08:17:10;11.55;79.10
69393;SHT31;56582;44.624;20.378;2023-11-21T08:19:36;11.50;78.77
69393;SHT31;56582;44.624;20.378;2023-11-21T08:22:03;11.31;78.66
69393;SHT31;56582;44.624;20.378;2023-11-21T08:24:28;11.34;78.51
69393;SHT31;56582;44.624;20.378;2023-11-21T08:26:54;11.41;79.05
69393;SHT31;56582;44.624;20.378;2023-11-21T08:29:19;11.50;79.24
69393;SHT31;56582;44.624;20.378;2023-11-21T08:31:45;11.51;79.47
69393;SHT31;56582;44.624;20.378;2023-11-21T08:34:12;11.57;79.94
69393;SHT31;56582;44.624;20.378;2023-11-21T08:36:42;11.66;80.61
69393;SHT31;56582;44.624;20.378;2023-11-21T08:39:08;11.72;80.60
69393;SHT31;56582;44.624;20.378;2023-11-21T08:41:34;11.86;80.30
69393;SHT31;56582;44.624;20.378;2023-11-21T08:44:00;11.93;80.65
69393;SHT31;56582;44.624;20.378;2023-11-21T08:46:25;12.02;80.23
69393;SHT31;56582;44.624;20.378;2023-11-21T08:48:51;12.23;79.86
69393;SHT31;56582;44.624;20.378;2023-11-21T08:51:17;12.33;78.24
69393;SHT31;56582;44.624;20.378;2023-11-21T08:53:43;12.40;78.60
69393;SHT31;56582;44.624;20.378;2023-11-21T08:56:14;12.45;77.25
69393;SHT31;56582;44.624;20.378;2023-11-21T08:58:40;12.51;77.61
69393;SHT31;56582;44.624;20.378;2023-11-21T09:01:06;12.62;77.90
69393;SHT31;56582;44.624;20.378;2023-11-21T09:03:32;12.61;77.60
69393;SHT31;56582;44.624;20.378;2023-11-21T09:06:00;12.71;77.73
69393;SHT31;56582;44.624;20.378;2023-11-21T09:08:25;12.82;77.73
69393;SHT31;56582;44.624;20.378;2023-11-21T09:10:53;12.92;77.85
69393;SHT31;56582;44.624;20.378;2023-11-21T09:13:18;13.06;79.14
69393;SHT31;56582;44.624;20.378;2023-11-21T09:15:44;13.24;79.33
69393;SHT31;56582;44.624;20.378;2023-11-21T09:18:13;13.38;77.19
69393;SHT31;56582;44.624;20.378;2023-11-21T09:20:39;13.49;76.42
69393;SHT31;56582;44.624;20.378;2023-11-21T09:23:04;13.69;75.09
69393;SHT31;56582;44.624;20.378;2023-11-21T09:25:29;13.73;73.95
69393;SHT31;56582;44.624;20.378;2023-11-21T09:27:55;13.82;74.31
69393;SHT31;56582;44.624;20.378;2023-11-21T09:30:22;13.80;74.82
69393;SHT31;56582;44.624;20.378;2023-11-21T09:32:50;13.75;74.01
69393;SHT31;56582;44.624;20.378;2023-11-21T09:35:16;13.64;73.46
69393;SHT31;56582;44.624;20.378;2023-11-21T09:37:45;13.57;72.89
69393;SHT31;56582;44.624;20.378;2023-11-21T09:40:11;13.40;73.60
69393;SHT31;56582;44.624;20.378;2023-11-21T09:42:55;13.46;73.08
69393;SHT31;56582;44.624;20.378;2023-11-21T09:45:25;13.49;73.55
69393;SHT31;56582;44.624;20.378;2023-11-21T09:47:53;13.54;74.14
69393;SHT31;56582;44.624;20.378;2023-11-21T09:50:20;13.40;74.64
69393;SHT31;56582;44.624;20.378;2023-11-21T09:55:34;13.32;75.86
69393;SHT31;56582;44.624;20.378;2023-11-21T09:58:04;13.30;75.87
69393;SHT31;56582;44.624;20.378;2023-11-21T10:00:33;13.29;75.30
69393;SHT31;56582;44.624;20.378;2023-11-21T10:02:59;13.32;74.96
69393;SHT31;56582;44.624;20.378;2023-11-21T10:05:25;13.26;75.68
69393;SHT31;56582;44.624;20.378;2023-11-21T10:07:51;13.18;75.81
69393;SHT31;56582;44.624;20.378;2023-11-21T10:10:21;12.99;75.41
69393;SHT31;56582;44.624;20.378;2023-11-21T10:12:50;12.98;76.33
69393;SHT31;56582;44.624;20.378;2023-11-21T10:15:21;13.03;76.11
69393;SHT31;56582;44.624;20.378;2023-11-21T10:17:51;13.19;75.46
69393;SHT31;56582;44.624;20.378;2023-11-21T10:20:19;13.19;75.34
69393;SHT31;56582;44.624;20.378;2023-11-21T10:22:45;13.33;75.60
69393;SHT31;56582;44.624;20.378;2023-11-21T10:25:11;13.42;76.46
69393;SHT31;56582;44.624;20.378;2023-11-21T10:27:40;13.35;75.71
69393;SHT31;56582;44.624;20.378;2023-11-21T10:30:07;13.38;75.91
69393;SHT31;56582;44.624;20.378;2023-11-21T10:32:33;13.39;77.26
69393;SHT31;56582;44.624;20.378;2023-11-21T10:34:59;13.39;76.61
69393;SHT31;56582;44.624;20.378;2023-11-21T10:37:35;13.36;76.94
69393;SHT31;56582;44.624;20.378;2023-11-21T10:40:00;13.46;77.27
69393;SHT31;56582;44.624;20.378;2023-11-21T10:42:26;13.32;77.21
69393;SHT31;56582;44.624;20.378;2023-11-21T10:44:55;13.42;78.05
69393;SHT31;56582;44.624;20.378;2023-11-21T10:47:20;13.70;77.87
69393;SHT31;56582;44.624;20.378;2023-11-21T10:49:51;13.64;77.60
69393;SHT31;56582;44.624;20.378;2023-11-21T10:52:19;13.27;76.54
69393;SHT31;56582;44.624;20.378;2023-11-21T10:54:45;13.23;75.47
69393;SHT31;56582;44.624;20.378;2023-11-21T10:57:14;13.03;77.44
69393;SHT31;56582;44.624;20.378;2023-11-21T10:59:46;12.85;78.55
69393;SHT31;56582;44.624;20.378;2023-11-21T11:02:24;12.74;79.58
69393;SHT31;56582;44.624;20.378;2023-11-21T11:04:54;12.67;79.24
69393;SHT31;56582;44.624;20.378;2023-11-21T11:07:24;12.67;79.24
69393;SHT31;56582;44.624;20.378;2023-11-21T11:09:52;12.81;79.29
69393;SHT31;56582;44.624;20.378;2023-11-21T11:12:17;12.78;79.30
69393;SHT31;56582;44.624;20.378;2023-11-21T11:14:44;12.89;79.93
69393;SHT31;56582;44.624;20.378;2023-11-21T11:17:10;12.89;80.14
69393;SHT31;56582;44.624;20.378;2023-11-21T11:19:36;12.88;80.22
69393;SHT31;56582;44.624;20.378;2023-11-21T11:27:54;12.19;82.39
69393;SHT31;56582;44.624;20.378;2023-11-21T11:30:47;11.59;84.00
69393;SHT31;56582;44.624;20.378;2023-11-21T11:33:36;11.97;84.17
69393;SHT31;56582;44.624;20.378;2023-11-21T11:38:39;11.61;84.72
69393;SHT31;56582;44.624;20.378;2023-11-21T11:41:10;11.18;86.59
69393;SHT31;56582;44.624;20.378;2023-11-21T11:43:35;11.27;86.98
69393;SHT31;56582;44.624;20.378;2023-11-21T11:46:11;11.35;87.15
69393;SHT31;56582;44.624;20.378;2023-11-21T11:48:40;11.20;87.57
69393;SHT31;56582;44.624;20.378;2023-11-21T11:51:13;11.34;87.27
69393;SHT31;56582;44.624;20.378;2023-11-21T11:53:47;10.90;88.62
69393;SHT31;56582;44.624;20.378;2023-11-21T11:58:49;11.28;87.61
69393;SHT31;56582;44.624;20.378;2023-11-21T12:01:19;11.28;87.77
69393;SHT31;56582;44.624;20.378;2023-11-21T12:06:42;11.44;87.73
69393;SHT31;56582;44.624;20.378;2023-11-21T12:09:22;11.39;87.49
69393;SHT31;56582;44.624;20.378;2023-11-21T12:11:51;11.48;87.53
69393;SHT31;56582;44.624;20.378;2023-11-21T12:14:17;11.28;87.84
69393;SHT31;56582;44.624;20.378;2023-11-21T12:16:43;11.24;88.59
69393;SHT31;56582;44.624;20.378;2023-11-21T12:19:12;11.23;88.86
69393;SHT31;56582;44.624;20.378;2023-11-21T12:21:38;10.95;89.55
69393;SHT31;56582;44.624;20.378;2023-11-21T12:24:04;10.93;90.00
69393;SHT31;56582;44.624;20.378;2023-11-21T12:26:34;11.13;89.55
69393;SHT31;56582;44.624;20.378;2023-11-21T12:29:01;11.28;89.12
69393;SHT31;56582;44.624;20.378;2023-11-21T12:31:30;11.52;88.83
69393;SHT31;56582;44.624;20.378;2023-11-21T12:33:55;11.24;89.26
69393;SHT31;56582;44.624;20.378;2023-11-21T12:36:21;11.07;90.60
69393;SHT31;56582;44.624;20.378;2023-11-21T12:38:47;11.07;90.35
69393;SHT31;56582;44.624;20.378;2023-11-21T12:41:13;11.06;90.65
69393;SHT31;56582;44.624;20.378;2023-11-21T12:43:40;10.72;91.10
69393;SHT31;56582;44.624;20.378;2023-11-21T12:46:10;10.45;90.93
69393;SHT31;56582;44.624;20.378;2023-11-21T12:48:39;10.10;92.19
69393;SHT31;56582;44.624;20.378;2023-11-21T12:51:08;10.11;91.69
69393;SHT31;56582;44.624;20.378;2023-11-21T12:53:35;10.28;91.20
69393;SHT31;56582;44.624;20.378;2023-11-21T12:56:13;10.37;91.68
69393;SHT31;56582;44.624;20.378;2023-11-21T12:58:39;10.68;90.56
69393;SHT31;56582;44.624;20.378;2023-11-21T13:01:07;10.34;91.11
69393;SHT31;56582;44.624;20.378;2023-11-21T13:03:40;10.45;91.48
69393;SHT31;56582;44.624;20.378;2023-11-21T13:06:06;9.90;91.93
69393;SHT31;56582;44.624;20.378;2023-11-21T13:08:33;9.59;93.37
69393;SHT31;56582;44.624;20.378;2023-11-21T13:10:59;9.67;93.84
69393;SHT31;56582;44.624;20.378;2023-11-21T13:13:28;9.52;94.00
69393;SHT31;56582;44.624;20.378;2023-11-21T13:15:55;9.93;93.71
69393;SHT31;56582;44.624;20.378;2023-11-21T13:18:25;9.76;93.41
69393;SHT31;56582;44.624;20.378;2023-11-21T13:20:58;9.94;93.39
69393;SHT31;56582;44.624;20.378;2023-11-21T13:23:24;10.05;93.47
69393;SHT31;56582;44.624;20.378;2023-11-21T13:25:51;10.08;92.70
69393;SHT31;56582;44.624;20.378;2023-11-21T13:28:17;9.87;93.10
69393;SHT31;56582;44.624;20.378;2023-11-21T13:30:50;9.95;93.08
69393;SHT31;56582;44.624;20.378;2023-11-21T13:33:18;9.74;93.51
69393;SHT31;56582;44.624;20.378;2023-11-21T13:35:47;9.53;93.69
69393;SHT31;56582;44.624;20.378;2023-11-21T13:38:18;9.52;94.29
69393;SHT31;56582;44.624;20.378;2023-11-21T13:40:48;9.28;94.01
69393;SHT31;56582;44.624;20.378;2023-11-21T13:43:18;9.28;93.79
69393;SHT31;56582;44.624;20.378;2023-11-21T13:45:46;9.40;93.84
69393;SHT31;56582;44.624;20.378;2023-11-21T13:48:13;9.38;93.55
69393;SHT31;56582;44.624;20.378;2023-11-21T13:50:46;9.22;93.82
69393;SHT31;56582;44.624;20.378;2023-11-21T13:53:23;9.57;93.83
69393;SHT31;56582;44.624;20.378;2023-11-21T13:55:52;9.69;93.27
69393;SHT31;56582;44.624;20.378;2023-11-21T13:58:23;9.69;92.85
69393;SHT31;56582;44.624;20.378;2023-11-21T14:01:00;9.32;93.02
69393;SHT31;56582;44.624;20.378;2023-11-21T14:03:27;9.66;93.04
69393;SHT31;56582;44.624;20.378;2023-11-21T14:06:05;9.47;93.51
69393;SHT31;56582;44.624;20.378;2023-11-21T14:08:42;9.53;93.32
69393;SHT31;56582;44.624;20.378;2023-11-21T14:11:08;9.66;93.35
69393;SHT31;56582;44.624;20.378;2023-11-21T14:13:36;9.73;93.24
69393;SHT31;56582;44.624;20.378;2023-11-21T14:16:01;9.56;93.64
69393;SHT31;56582;44.624;20.378;2023-11-21T14:18:28;9.91;93.49
69393;SHT31;56582;44.624;20.378;2023-11-21T14:20:59;9.80;93.37
69393;SHT31;56582;44.624;20.378;2023-11-21T14:23:25;9.98;93.44
69393;SHT31;56582;44.624;20.378;2023-11-21T14:25:51;9.91;93.03
69393;SHT31;56582;44.624;20.378;2023-11-21T14:28:17;10.08;92.64
69393;SHT31;56582;44.624;20.378;2023-11-21T14:30:45;10.15;92.74
69393;SHT31;56582;44.624;20.378;2023-11-21T14:33:11;10.15;92.35
69393;SHT31;56582;44.624;20.378;2023-11-21T14:35:37;10.04;92.46
69393;SHT31;56582;44.624;20.378;2023-11-21T14:38:09;10.04;92.69
69393;SHT31;56582;44.624;20.378;2023-11-21T14:40:35;10.17;92.33
69393;SHT31;56582;44.624;20.378;2023-11-21T14:43:04;10.21;91.86
69393;SHT31;56582;44.624;20.378;2023-11-21T14:45:32;9.87;92.21
69393;SHT31;56582;44.624;20.378;2023-11-21T14:47:58;10.04;92.35
69393;SHT31;56582;44.624;20.378;2023-11-21T14:50:30;10.02;92.45
69393;SHT31;56582;44.624;20.378;2023-11-21T14:53:09;10.00;92.42
69393;SHT31;56582;44.624;20.378;2023-11-21T14:55:35;10.00;92.43
69393;SHT31;56582;44.624;20.378;2023-11-21T14:58:06;10.08;91.84
69393;SHT31;56582;44.624;20.378;2023-11-21T15:00:38;9.94;92.35
69393;SHT31;56582;44.624;20.378;2023-11-21T15:03:11;9.74;92.83
69393;SHT31;56582;44.624;20.378;2023-11-21T15:05:56;9.98;92.52
69393;SHT31;56582;44.624;20.378;2023-11-21T15:08:22;10.00;91.52
69393;SHT31;56582;44.624;20.378;2023-11-21T15:10:55;9.86;92.11
69393;SHT31;56582;44.624;20.378;2023-11-21T15:13:21;9.81;93.30
69393;SHT31;56582;44.624;20.378;2023-11-21T15:15:48;9.83;93.19
69393;SHT31;56582;44.624;20.378;2023-11-21T15:18:14;9.76;93.11
69393;SHT31;56582;44.624;20.378;2023-11-21T15:20:40;9.81;93.56
69393;SHT31;56582;44.624;20.378;2023-11-21T15:23:09;9.84;93.40
69393;SHT31;56582;44.624;20.378;2023-11-21T15:25:35;9.86;93.11
69393;SHT31;56582;44.624;20.378;2023-11-21T15:28:02;9.91;93.01
69393;SHT31;56582;44.624;20.378;2023-11-21T15:30:28;9.67;93.75
69393;SHT31;56582;44.624;20.378;2023-11-21T15:32:57;9.77;93.51
69393;SHT31;56582;44.624;20.378;2023-11-21T15:35:23;9.88;93.20
69393;SHT31;56582;44.624;20.378;2023-11-21T15:37:49;9.93;93.09
69393;SHT31;56582;44.624;20.378;2023-11-21T15:40:14;9.87;93.00